createdAt,value
2018-04-13T00:01:34.244Z,14.75
2018-04-13T00:04:01.811Z,14.74
2018-04-13T00:06:29.756Z,14.70
2018-04-13T00:08:57.370Z,14.67
2018-04-13T00:11:25.217Z,14.61
2018-04-13T00:13:52.819Z,14.56
2018-04-13T00:16:20.341Z,14.52
2018-04-13T00:18:47.895Z,14.51
2018-04-13T00:21:15.445Z,14.47
2018-04-13T00:23:43.122Z,14.44
2018-04-13T00:26:10.685Z,14.38
2018-04-13T00:28:38.284Z,14.32
2018-04-13T00:31:05.819Z,14.33
2018-04-13T00:33:33.419Z,14.30
2018-04-13T00:36:00.979Z,14.29
2018-04-13T00:38:28.557Z,14.27
2018-04-13T00:40:56.107Z,14.22
2018-04-13T00:43:23.717Z,14.13
2018-04-13T00:45:51.253Z,14.11
2018-04-13T00:48:18.831Z,14.00
2018-04-13T00:50:46.373Z,13.92
2018-04-13T00:53:25.696Z,13.93
2018-04-13T00:55:53.274Z,13.91
2018-04-13T00:58:21.125Z,13.82
2018-04-13T01:00:48.717Z,13.79
2018-04-13T01:03:16.272Z,13.76
2018-04-13T01:05:43.816Z,13.73
2018-04-13T01:08:11.363Z,13.70
2018-04-13T01:10:38.928Z,13.68
2018-04-13T01:13:06.485Z,13.65
2018-04-13T01:15:34.073Z,13.59
2018-04-13T01:18:01.619Z,13.57
2018-04-13T01:20:29.211Z,13.55
2018-04-13T01:22:56.810Z,13.51
2018-04-13T01:25:24.366Z,13.50
2018-04-13T01:27:51.902Z,13.48
2018-04-13T01:30:19.462Z,13.40
2018-04-13T01:32:47.005Z,13.33
2018-04-13T01:35:14.590Z,13.32
2018-04-13T01:37:42.145Z,13.29
2018-04-13T01:40:09.754Z,13.26
2018-04-13T01:42:37.301Z,13.25
2018-04-13T01:45:04.866Z,13.23
2018-04-13T01:47:32.414Z,13.16
2018-04-13T01:50:00.010Z,13.13
2018-04-13T01:52:27.571Z,13.12
2018-04-13T01:54:55.308Z,13.08
2018-04-13T01:57:22.852Z,13.02
2018-04-13T01:59:50.476Z,12.98
2018-04-13T02:02:18.040Z,12.95
2018-04-13T02:04:46.288Z,12.88
2018-04-13T02:07:13.842Z,12.83
2018-04-13T02:09:41.966Z,12.83
2018-04-13T02:12:09.791Z,12.82
2018-04-13T02:14:37.851Z,12.81
2018-04-13T02:17:05.414Z,12.81
2018-04-13T02:19:32.979Z,12.81
2018-04-13T02:22:00.523Z,12.81
2018-04-13T02:24:28.100Z,12.80
2018-04-13T02:26:55.659Z,12.79
2018-04-13T02:29:23.247Z,12.80
2018-04-13T02:31:50.792Z,12.78
2018-04-13T02:34:18.445Z,12.76
2018-04-13T02:36:46.041Z,12.73
2018-04-13T02:39:13.593Z,12.70
2018-04-13T02:41:41.209Z,12.65
2018-04-13T02:44:25.860Z,12.63
2018-04-13T02:46:53.491Z,12.64
2018-04-13T02:49:21.069Z,12.61
2018-04-13T02:51:48.615Z,12.55
2018-04-13T02:54:16.159Z,12.46
2018-04-13T02:56:43.704Z,12.42
2018-04-13T02:59:11.263Z,12.40
2018-04-13T03:01:38.841Z,12.37
2018-04-13T03:04:06.423Z,12.34
2018-04-13T03:06:33.976Z,12.28
2018-04-13T03:09:01.576Z,12.28
2018-04-13T03:11:29.120Z,12.18
2018-04-13T03:13:56.732Z,12.14
2018-04-13T03:16:24.291Z,12.13
2018-04-13T03:18:51.969Z,12.10
2018-04-13T03:21:19.515Z,12.08
2018-04-13T03:23:47.176Z,12.07
2018-04-13T03:26:14.717Z,12.02
2018-04-13T03:28:42.295Z,12.00
2018-04-13T03:31:09.832Z,11.99
2018-04-13T03:33:37.420Z,11.94
2018-04-13T03:36:04.965Z,11.93
2018-04-13T03:38:32.525Z,11.92
2018-04-13T03:41:20.182Z,11.91
2018-04-13T03:43:47.769Z,11.88
2018-04-13T03:46:15.316Z,11.90
2018-04-13T03:48:43.526Z,11.88
2018-04-13T03:51:11.045Z,11.86
2018-04-13T03:53:39.152Z,11.82
2018-04-13T03:56:06.702Z,11.81
2018-04-13T03:58:34.606Z,11.78
2018-04-13T04:01:02.280Z,11.75
2018-04-13T04:03:30.039Z,11.76
2018-04-13T04:05:57.567Z,11.74
2018-04-13T04:08:25.297Z,11.70
2018-04-13T04:10:53.003Z,11.69
2018-04-13T04:13:20.841Z,11.67
2018-04-13T04:15:48.742Z,11.65
2018-04-13T04:18:16.272Z,11.68
2018-04-13T04:20:55.677Z,11.70
2018-04-13T04:23:35.726Z,11.69
2018-04-13T04:26:21.819Z,11.75
2018-04-13T04:28:49.859Z,11.79
2018-04-13T04:31:17.421Z,11.80
2018-04-13T04:33:45.425Z,11.80
2018-04-13T04:36:13.012Z,11.77
2018-04-13T04:38:40.586Z,11.80
2018-04-13T04:41:08.240Z,11.71
2018-04-13T04:43:35.794Z,11.75
2018-04-13T04:46:03.491Z,11.75
2018-04-13T04:48:31.033Z,11.75
2018-04-13T04:50:59.130Z,11.77
2018-04-13T04:53:26.686Z,11.80
2018-04-13T04:55:54.254Z,11.86
2018-04-13T04:58:21.884Z,11.91
2018-04-13T05:00:49.890Z,11.94
2018-04-13T05:03:17.840Z,11.98
2018-04-13T05:05:45.841Z,11.99
2018-04-13T05:08:13.413Z,12.02
2018-04-13T05:10:41.182Z,12.05
2018-04-13T05:13:08.772Z,12.04
2018-04-13T05:15:36.300Z,12.02
2018-04-13T05:18:03.868Z,12.02
2018-04-13T05:20:31.425Z,12.13
2018-04-13T05:22:59.045Z,12.17
2018-04-13T05:25:26.591Z,12.13
2018-04-13T05:27:54.171Z,12.12
2018-04-13T05:30:21.742Z,12.15
2018-04-13T05:32:49.317Z,12.18
2018-04-13T05:35:17.005Z,12.12
2018-04-13T05:37:44.566Z,12.18
2018-04-13T05:40:12.177Z,12.22
2018-04-13T05:42:39.747Z,12.24
2018-04-13T05:45:07.666Z,12.27
2018-04-13T05:47:37.740Z,12.28
2018-04-13T05:50:05.351Z,12.21
2018-04-13T05:52:32.882Z,12.18
2018-04-13T05:55:00.487Z,12.13
2018-04-13T05:57:28.166Z,12.12
2018-04-13T05:59:56.421Z,12.08
2018-04-13T06:02:23.957Z,12.00
2018-04-13T06:04:52.420Z,12.05
2018-04-13T06:07:19.992Z,12.16
2018-04-13T06:09:47.833Z,12.23
2018-04-13T06:12:15.428Z,12.31
2018-04-13T06:14:42.995Z,12.41
2018-04-13T06:17:10.655Z,12.39
2018-04-13T06:19:38.209Z,12.40
2018-04-13T06:22:05.807Z,12.47
2018-04-13T06:24:33.377Z,12.51
2018-04-13T06:27:01.028Z,12.52
2018-04-13T06:29:28.606Z,12.53
2018-04-13T06:31:56.247Z,12.57
2018-04-13T06:34:23.830Z,12.60
2018-04-13T06:36:55.045Z,12.64
2018-04-13T06:39:19.449Z,12.77
2018-04-13T06:41:47.022Z,12.88
2018-04-13T06:44:14.590Z,13.00
2018-04-13T06:46:42.130Z,13.01
2018-04-13T06:49:09.669Z,13.06
2018-04-13T06:51:37.234Z,13.07
2018-04-13T06:54:04.776Z,13.05
2018-04-13T06:56:33.209Z,13.04
2018-04-13T06:59:00.775Z,13.05
2018-04-13T07:01:28.785Z,13.05
2018-04-13T07:03:56.341Z,13.09
2018-04-13T07:06:23.907Z,13.01
2018-04-13T07:08:51.450Z,13.10
2018-04-13T07:11:18.989Z,13.16
2018-04-13T07:13:46.566Z,13.00
2018-04-13T07:16:14.094Z,13.01
2018-04-13T07:18:41.678Z,12.99
2018-04-13T07:21:09.287Z,13.03
2018-04-13T07:23:36.952Z,13.15
2018-04-13T07:26:04.514Z,13.23
2018-04-13T07:28:32.074Z,13.40
2018-04-13T07:30:59.638Z,13.47
2018-04-13T07:33:27.259Z,13.58
2018-04-13T07:35:55.225Z,13.73
2018-04-13T07:38:22.416Z,13.82
2018-04-13T07:40:49.954Z,13.93
2018-04-13T07:43:17.519Z,14.02
2018-04-13T07:45:45.345Z,14.01
2018-04-13T07:48:13.124Z,14.02
2018-04-13T07:50:40.690Z,14.10
2018-04-13T07:53:08.692Z,14.24
2018-04-13T07:55:36.270Z,14.41
2018-04-13T07:58:04.255Z,14.63
2018-04-13T08:00:31.783Z,14.84
2018-04-13T08:02:59.719Z,14.84
2018-04-13T08:05:27.316Z,14.85
2018-04-13T08:07:54.872Z,14.92
2018-04-13T08:10:22.429Z,14.96
2018-04-13T08:12:49.984Z,14.98
2018-04-13T08:15:17.522Z,15.02
2018-04-13T08:17:45.077Z,15.00
2018-04-13T08:20:12.629Z,14.98
2018-04-13T08:22:40.180Z,14.95
2018-04-13T08:25:07.737Z,14.88
2018-04-13T08:27:35.290Z,14.95
2018-04-13T08:30:02.874Z,15.15
2018-04-13T08:32:30.433Z,15.13
2018-04-13T08:34:57.983Z,15.07
2018-04-13T08:37:25.535Z,15.20
2018-04-13T08:39:53.141Z,15.26
2018-04-13T08:42:20.709Z,15.28
2018-04-13T08:44:48.297Z,15.32
2018-04-13T08:47:15.897Z,15.22
2018-04-13T08:49:43.482Z,15.30
2018-04-13T08:52:11.014Z,15.34
2018-04-13T08:54:38.604Z,15.53
2018-04-13T08:57:06.192Z,15.60
2018-04-13T08:59:33.774Z,15.63
2018-04-13T09:02:01.302Z,15.71
2018-04-13T09:04:28.872Z,15.76
2018-04-13T09:06:56.424Z,15.84
2018-04-13T09:09:23.991Z,15.91
2018-04-13T09:11:51.537Z,16.01
2018-04-13T09:14:19.124Z,16.00
2018-04-13T09:16:46.758Z,16.11
2018-04-13T09:19:14.314Z,16.11
2018-04-13T09:21:41.881Z,16.22
2018-04-13T09:24:09.451Z,16.25
2018-04-13T09:26:36.979Z,16.22
2018-04-13T09:29:04.547Z,16.23
2018-04-13T09:31:32.098Z,16.39
2018-04-13T09:33:59.687Z,16.37
2018-04-13T09:36:27.207Z,16.49
2018-04-13T09:38:54.850Z,16.48
2018-04-13T09:41:22.391Z,16.66
2018-04-13T09:43:49.955Z,16.85
2018-04-13T09:46:17.499Z,16.82
2018-04-13T09:48:45.054Z,16.77
2018-04-13T09:51:12.601Z,16.79
2018-04-13T09:53:40.135Z,16.75
2018-04-13T09:56:07.670Z,16.65
2018-04-13T09:58:35.229Z,16.80
2018-04-13T10:01:02.773Z,16.87
2018-04-13T10:03:36.139Z,16.93
2018-04-13T10:06:03.696Z,16.80
2018-04-13T10:08:31.246Z,16.73
2018-04-13T10:10:58.771Z,16.73
2018-04-13T10:13:26.323Z,16.82
2018-04-13T10:15:53.930Z,16.90
2018-04-13T10:18:21.489Z,16.89
2018-04-13T10:20:49.053Z,16.95
2018-04-13T10:23:16.612Z,16.76
2018-04-13T10:25:44.166Z,16.71
2018-04-13T10:28:11.725Z,16.66
2018-04-13T10:30:39.281Z,16.70
2018-04-13T10:33:07.231Z,16.67
2018-04-13T10:35:34.785Z,16.79
2018-04-13T10:38:02.735Z,16.73
2018-04-13T10:40:30.308Z,16.68
2018-04-13T10:42:58.220Z,16.82
2018-04-13T10:45:25.777Z,16.72
2018-04-13T10:47:53.349Z,16.72
2018-04-13T10:50:20.929Z,16.74
2018-04-13T10:52:48.471Z,16.68
2018-04-13T10:55:16.044Z,16.69
2018-04-13T10:57:43.618Z,16.59
2018-04-13T11:00:11.181Z,16.61
2018-04-13T11:02:38.744Z,16.64
2018-04-13T11:05:06.314Z,16.58
2018-04-13T11:07:33.846Z,16.52
2018-04-13T11:10:01.396Z,16.59
2018-04-13T11:12:28.933Z,16.55
2018-04-13T11:14:56.536Z,16.56
2018-04-13T11:17:24.103Z,16.63
2018-04-13T11:19:51.834Z,16.72
2018-04-13T11:22:19.393Z,16.68
2018-04-13T11:24:46.946Z,16.83
2018-04-13T11:27:14.507Z,16.80
2018-04-13T11:29:42.082Z,16.80
2018-04-13T11:32:09.649Z,16.69
2018-04-13T11:34:37.810Z,16.79
2018-04-13T11:37:05.363Z,16.68
2018-04-13T11:39:32.900Z,16.78
2018-04-13T11:42:00.436Z,16.83
2018-04-13T11:44:28.496Z,16.77
2018-04-13T11:46:56.053Z,16.83
2018-04-13T11:49:24.065Z,16.80
2018-04-13T11:51:51.680Z,16.82
2018-04-13T11:54:19.419Z,16.89
2018-04-13T11:56:46.998Z,17.05
2018-04-13T11:59:14.567Z,17.07
2018-04-13T12:01:42.110Z,17.15
2018-04-13T12:04:09.644Z,17.23
2018-04-13T12:06:37.212Z,17.23
2018-04-13T12:09:04.774Z,17.32
2018-04-13T12:11:32.355Z,17.43
2018-04-13T12:13:59.948Z,17.64
2018-04-13T12:16:27.511Z,17.76
2018-04-13T12:18:55.093Z,17.75
2018-04-13T12:21:22.666Z,17.80
2018-04-13T12:23:50.752Z,17.75
2018-04-13T12:26:18.636Z,17.85
2018-04-13T12:28:46.219Z,18.02
2018-04-13T12:31:13.795Z,18.14
2018-04-13T12:33:41.320Z,18.29
2018-04-13T12:36:08.962Z,18.34
2018-04-13T12:38:36.516Z,18.46
2018-04-13T12:41:04.538Z,18.58
2018-04-13T12:43:32.128Z,18.57
2018-04-13T12:45:59.983Z,18.49
2018-04-13T12:48:27.593Z,18.39
2018-04-13T12:50:55.432Z,18.26
2018-04-13T12:53:22.992Z,18.20
2018-04-13T12:55:50.550Z,17.95
2018-04-13T12:58:18.087Z,17.74
2018-04-13T13:00:45.680Z,17.75
2018-04-13T13:03:13.209Z,17.80
2018-04-13T13:05:40.747Z,17.76
2018-04-13T13:08:08.293Z,17.82
2018-04-13T13:10:35.819Z,17.85
2018-04-13T13:13:03.360Z,17.94
2018-04-13T13:15:30.911Z,18.14
2018-04-13T13:17:58.466Z,18.31
2018-04-13T13:20:26.011Z,18.55
2018-04-13T13:22:53.560Z,18.37
2018-04-13T13:25:21.223Z,18.21
2018-04-13T13:27:48.905Z,18.09
2018-04-13T13:30:16.446Z,18.00
2018-04-13T13:32:44.087Z,17.89
2018-04-13T13:35:11.657Z,17.83
2018-04-13T13:37:39.248Z,17.78
2018-04-13T13:40:06.781Z,17.75
2018-04-13T13:42:34.339Z,17.64
2018-04-13T13:45:01.876Z,17.58
2018-04-13T13:47:29.424Z,17.47
2018-04-13T13:49:56.970Z,17.45
2018-04-13T13:52:24.529Z,17.48
2018-04-13T13:54:52.083Z,17.46
2018-04-13T13:57:19.639Z,17.54
2018-04-13T13:59:47.182Z,17.64
2018-04-13T14:02:14.771Z,17.92
2018-04-13T14:04:42.319Z,18.03
2018-04-13T14:07:09.897Z,18.19
2018-04-13T14:09:37.417Z,18.35
2018-04-13T14:12:04.944Z,18.27
2018-04-13T14:14:32.541Z,18.24
2018-04-13T14:17:00.107Z,18.20
2018-04-13T14:19:27.642Z,18.20
2018-04-13T14:21:55.193Z,18.01
2018-04-13T14:24:22.733Z,18.00
2018-04-13T14:26:50.291Z,17.96
2018-04-13T14:29:17.837Z,17.86
2018-04-13T14:31:45.349Z,17.88
2018-04-13T14:34:12.904Z,17.98
2018-04-13T14:36:40.482Z,17.94
2018-04-13T14:39:08.066Z,17.95
2018-04-13T14:41:35.608Z,17.86
2018-04-13T14:44:03.202Z,17.87
2018-04-13T14:46:30.758Z,17.85
2018-04-13T14:48:58.319Z,17.83
2018-04-13T14:51:25.870Z,17.88
2018-04-13T14:53:53.438Z,17.88
2018-04-13T14:56:20.994Z,18.01
2018-04-13T14:58:48.554Z,17.96
2018-04-13T15:01:16.112Z,18.03
2018-04-13T15:03:43.675Z,17.94
2018-04-13T15:06:11.243Z,17.95
2018-04-13T15:08:38.793Z,17.89
2018-04-13T15:11:06.374Z,17.80
2018-04-13T15:13:33.891Z,17.71
2018-04-13T15:16:01.467Z,17.62
2018-04-13T15:18:29.207Z,17.58
2018-04-13T15:20:56.783Z,17.49
2018-04-13T15:23:24.334Z,17.39
2018-04-13T15:25:51.909Z,17.46
2018-04-13T15:28:19.476Z,17.41
2018-04-13T15:30:47.052Z,17.47
2018-04-13T15:33:16.250Z,17.46
2018-04-13T15:35:44.475Z,17.49
2018-04-13T15:38:13.763Z,17.63
2018-04-13T15:40:46.275Z,17.61
2018-04-13T15:43:14.529Z,17.61
2018-04-13T15:45:42.075Z,17.53
2018-04-13T15:48:10.286Z,17.43
2018-04-13T15:50:37.889Z,17.35
2018-04-13T15:53:05.434Z,17.22
2018-04-13T15:55:33.070Z,17.23
2018-04-13T15:58:00.636Z,17.12
2018-04-13T16:00:28.388Z,17.15
2018-04-13T16:02:55.945Z,17.19
2018-04-13T16:05:24.252Z,17.10
2018-04-13T16:07:51.814Z,16.99
2018-04-13T16:10:19.874Z,17.08
2018-04-13T16:12:47.407Z,17.14
2018-04-13T16:15:15.691Z,17.06
2018-04-13T16:17:43.312Z,16.96
2018-04-13T16:20:10.877Z,16.99
2018-04-13T16:22:38.531Z,17.02
2018-04-13T16:25:06.066Z,16.94
2018-04-13T16:27:34.437Z,16.91
2018-04-13T16:30:01.969Z,17.01
2018-04-13T16:32:30.117Z,16.97
2018-04-13T16:34:57.660Z,17.00
2018-04-13T16:37:27.954Z,16.92
2018-04-13T16:39:55.923Z,16.99
2018-04-13T16:42:23.521Z,17.01
2018-04-13T16:44:51.137Z,16.99
2018-04-13T16:47:18.844Z,17.04
2018-04-13T16:49:46.400Z,17.17
2018-04-13T16:52:14.658Z,17.08
2018-04-13T16:54:42.216Z,16.98
2018-04-13T16:57:10.388Z,16.93
2018-04-13T16:59:37.940Z,16.83
2018-04-13T17:02:06.018Z,16.83
2018-04-13T17:04:33.626Z,16.79
2018-04-13T17:07:01.227Z,16.74
2018-04-13T17:09:28.792Z,16.68
2018-04-13T17:11:56.358Z,16.64
2018-04-13T17:14:24.072Z,16.61
2018-04-13T17:16:51.630Z,16.65
2018-04-13T17:19:19.915Z,16.63
2018-04-13T17:21:47.465Z,16.56
2018-04-13T17:24:15.433Z,16.56
2018-04-13T17:26:43.009Z,16.49
2018-04-13T17:29:11.538Z,16.51
2018-04-13T17:31:39.974Z,16.51
2018-04-13T17:34:08.448Z,16.48
2018-04-13T17:36:36.208Z,16.48
2018-04-13T17:39:03.812Z,16.31
2018-04-13T17:41:31.361Z,16.31
2018-04-13T17:43:59.082Z,16.33
2018-04-13T17:46:26.715Z,16.35
2018-04-13T17:48:54.887Z,16.31
2018-04-13T17:51:22.443Z,16.26
2018-04-13T17:53:50.453Z,16.21
2018-04-13T17:56:18.003Z,16.21
2018-04-13T17:58:45.874Z,16.25
2018-04-13T18:01:13.435Z,16.28
2018-04-13T18:03:41.381Z,16.27
2018-04-13T18:06:09.028Z,16.22
2018-04-13T18:08:36.571Z,16.22
2018-04-13T18:11:04.205Z,16.19
2018-04-13T18:13:31.836Z,16.20
2018-04-13T18:15:59.409Z,16.12
2018-04-13T18:18:27.978Z,16.06
2018-04-13T18:20:56.087Z,16.08
2018-04-13T18:23:23.846Z,16.10
2018-04-13T18:25:51.902Z,16.05
2018-04-13T18:28:19.474Z,16.16
2018-04-13T18:30:47.025Z,16.08
2018-04-13T18:33:14.648Z,16.02
2018-04-13T18:35:42.217Z,16.00
2018-04-13T18:38:09.794Z,16.05
2018-04-13T18:40:37.337Z,16.07
2018-04-13T18:43:05.013Z,16.08
2018-04-13T18:45:32.593Z,15.99
2018-04-13T18:48:00.160Z,15.98
2018-04-13T18:50:27.715Z,15.96
2018-04-13T18:52:55.393Z,15.94
2018-04-13T18:55:22.954Z,15.91
2018-04-13T18:57:50.506Z,15.92
2018-04-13T19:00:18.054Z,16.04
2018-04-13T19:02:45.743Z,15.96
2018-04-13T19:05:13.347Z,15.92
2018-04-13T19:07:41.472Z,15.94
2018-04-13T19:10:09.022Z,15.91
2018-04-13T19:12:36.616Z,15.91
2018-04-13T19:15:04.150Z,15.91
2018-04-13T19:17:31.803Z,15.88
2018-04-13T19:19:59.363Z,15.84
2018-04-13T19:22:26.995Z,15.83
2018-04-13T19:24:55.055Z,15.86
2018-04-13T19:27:22.788Z,15.87
2018-04-13T19:29:50.797Z,15.86
2018-04-13T19:32:18.408Z,15.86
2018-04-13T19:34:45.960Z,15.88
2018-04-13T19:37:13.579Z,15.90
2018-04-13T19:39:41.122Z,15.89
2018-04-13T19:42:09.505Z,15.86
2018-04-13T19:44:37.056Z,15.85
2018-04-13T19:47:05.024Z,15.84
2018-04-13T19:49:32.624Z,15.85
2018-04-13T19:52:00.848Z,15.80
2018-04-13T19:54:28.464Z,15.79
2018-04-13T19:56:56.073Z,15.79
2018-04-13T19:59:24.463Z,15.77
2018-04-13T20:01:52.026Z,15.76
2018-04-13T20:04:20.140Z,15.72
2018-04-13T20:06:47.770Z,15.72
2018-04-13T20:09:15.872Z,15.70
2018-04-13T20:11:43.464Z,15.70
2018-04-13T20:14:11.060Z,15.64
2018-04-13T20:16:38.785Z,15.65
2018-04-13T20:19:06.313Z,15.63
2018-04-13T20:21:33.901Z,15.61
2018-04-13T20:24:01.460Z,15.62
2018-04-13T20:26:29.800Z,15.64
2018-04-13T20:28:57.372Z,15.57
2018-04-13T20:31:25.397Z,15.56
2018-04-13T20:33:52.949Z,15.57
2018-04-13T20:36:21.005Z,15.56
2018-04-13T20:38:48.621Z,15.55
2018-04-13T20:41:16.408Z,15.58
2018-04-13T20:43:43.989Z,15.55
2018-04-13T20:46:11.651Z,15.60
2018-04-13T20:48:39.335Z,15.62
2018-04-13T20:51:06.869Z,15.68
2018-04-13T20:53:34.463Z,15.64
2018-04-13T20:56:01.998Z,15.62
2018-04-13T20:58:29.549Z,15.50
2018-04-13T21:00:57.105Z,15.52
2018-04-13T21:03:24.690Z,15.45
2018-04-13T21:05:52.239Z,15.41
2018-04-13T21:08:19.805Z,15.42
2018-04-13T21:10:47.410Z,15.42
2018-04-13T21:13:15.050Z,15.41
2018-04-13T21:15:42.605Z,15.39
2018-04-13T21:18:10.209Z,15.35
2018-04-13T21:20:37.768Z,15.33
2018-04-13T21:23:05.364Z,15.32
2018-04-13T21:25:32.918Z,15.33
2018-04-13T21:28:00.516Z,15.29
2018-04-13T21:30:28.138Z,15.29
2018-04-13T21:32:56.417Z,15.27
2018-04-13T21:35:24.008Z,15.26
2018-04-13T21:37:52.117Z,15.24
2018-04-13T21:40:19.676Z,15.24
2018-04-13T21:42:47.549Z,15.24
2018-04-13T21:45:15.107Z,15.21
2018-04-13T21:47:43.080Z,15.21
2018-04-13T21:50:10.615Z,15.20
2018-04-13T21:52:38.159Z,15.17
2018-04-13T21:55:05.829Z,15.14
2018-04-13T21:57:33.354Z,15.18
2018-04-13T22:00:00.930Z,15.15
2018-04-13T22:02:28.505Z,15.13
2018-04-13T22:04:56.082Z,15.13
2018-04-13T22:07:23.622Z,15.10
2018-04-13T22:09:51.198Z,15.08
2018-04-13T22:12:30.599Z,15.06
2018-04-13T22:14:58.801Z,15.00
2018-04-13T22:17:26.351Z,14.99
2018-04-13T22:19:53.905Z,14.99
2018-04-13T22:22:21.469Z,14.99
2018-04-13T22:24:49.033Z,14.98
2018-04-13T22:27:16.593Z,14.95
2018-04-13T22:29:44.141Z,14.94
2018-04-13T22:32:11.670Z,14.92
2018-04-13T22:34:39.228Z,14.90
2018-04-13T22:37:06.812Z,14.90
2018-04-13T22:39:34.366Z,14.89
2018-04-13T22:42:01.910Z,14.88
2018-04-13T22:44:29.792Z,14.86
2018-04-13T22:46:57.347Z,14.84
2018-04-13T22:49:24.888Z,14.81
2018-04-13T22:51:52.493Z,14.78
2018-04-13T22:54:20.044Z,14.78
2018-04-13T22:56:47.632Z,14.76
2018-04-13T22:59:15.162Z,14.70
2018-04-13T23:01:42.759Z,14.72
2018-04-13T23:04:10.366Z,14.69
2018-04-13T23:06:37.939Z,14.70
2018-04-13T23:09:05.481Z,14.68
2018-04-13T23:11:33.057Z,14.61
2018-04-13T23:14:00.599Z,14.61
2018-04-13T23:16:28.217Z,14.59
2018-04-13T23:18:55.766Z,14.59
2018-04-13T23:21:23.895Z,14.56
2018-04-13T23:23:51.440Z,14.52
2018-04-13T23:26:19.028Z,14.49
2018-04-13T23:28:46.590Z,14.44
2018-04-13T23:31:14.147Z,14.42
2018-04-13T23:33:41.687Z,14.40
2018-04-13T23:36:09.262Z,14.38
2018-04-13T23:38:36.827Z,14.35
2018-04-13T23:41:04.418Z,14.36
2018-04-13T23:43:31.973Z,14.33
2018-04-13T23:45:59.610Z,14.32
2018-04-13T23:48:27.215Z,14.30
2018-04-13T23:50:55.272Z,14.28
2018-04-13T23:53:22.829Z,14.23
2018-04-13T23:55:50.761Z,14.25
2018-04-13T23:58:18.307Z,14.27
